createdAt,value
2018-09-23T00:01:52.742Z,14.96
2018-09-23T00:04:20.761Z,14.89
2018-09-23T00:06:48.854Z,14.86
2018-09-23T00:09:16.962Z,14.84
2018-09-23T00:11:45.075Z,14.85
2018-09-23T00:14:15.046Z,14.84
2018-09-23T00:16:43.390Z,14.79
2018-09-23T00:19:11.559Z,14.81
2018-09-23T00:21:39.829Z,14.81
2018-09-23T00:24:07.928Z,14.79
2018-09-23T00:26:35.929Z,14.78
2018-09-23T00:29:03.995Z,14.77
2018-09-23T00:31:32.179Z,14.75
2018-09-23T00:34:00.417Z,14.72
2018-09-23T00:36:28.689Z,14.75
2018-09-23T00:38:56.807Z,14.72
2018-09-23T00:41:24.928Z,14.72
2018-09-23T00:43:52.971Z,14.76
2018-09-23T00:46:20.977Z,14.71
2018-09-23T00:48:49.039Z,14.70
2018-09-23T00:51:17.124Z,14.66
2018-09-23T00:53:45.223Z,14.57
2018-09-23T00:56:13.259Z,14.54
2018-09-23T00:58:41.413Z,14.55
2018-09-23T01:01:09.592Z,14.52
2018-09-23T01:03:37.693Z,14.51
2018-09-23T01:06:05.911Z,14.46
2018-09-23T01:08:34.025Z,14.39
2018-09-23T01:11:02.088Z,14.37
2018-09-23T01:13:30.307Z,14.40
2018-09-23T01:15:58.404Z,14.35
2018-09-23T01:18:26.460Z,14.38
2018-09-23T01:20:54.531Z,14.42
2018-09-23T01:23:22.577Z,14.45
2018-09-23T01:25:50.733Z,14.34
2018-09-23T01:28:18.805Z,14.23
2018-09-23T01:30:46.812Z,14.21
2018-09-23T01:33:14.895Z,14.17
2018-09-23T01:35:42.967Z,14.16
2018-09-23T01:38:11.226Z,14.11
2018-09-23T01:40:39.593Z,14.07
2018-09-23T01:43:07.817Z,14.08
2018-09-23T01:45:36.120Z,14.05
2018-09-23T01:48:04.170Z,14.05
2018-09-23T01:50:32.184Z,14.06
2018-09-23T01:53:00.301Z,14.06
2018-09-23T01:55:28.381Z,14.06
2018-09-23T01:57:56.393Z,14.04
2018-09-23T02:00:24.529Z,14.08
2018-09-23T02:02:52.665Z,14.16
2018-09-23T02:05:20.722Z,14.18
2018-09-23T02:07:48.797Z,14.10
2018-09-23T02:10:16.843Z,14.12
2018-09-23T02:12:44.985Z,14.15
2018-09-23T02:15:13.095Z,14.28
2018-09-23T02:17:41.228Z,14.19
2018-09-23T02:20:09.444Z,14.11
2018-09-23T02:22:37.763Z,14.00
2018-09-23T02:25:05.963Z,13.94
2018-09-23T02:27:34.014Z,13.86
2018-09-23T02:30:02.073Z,13.80
2018-09-23T02:32:30.302Z,13.74
2018-09-23T02:34:58.364Z,13.69
2018-09-23T02:37:26.556Z,13.66
2018-09-23T02:39:54.678Z,13.57
2018-09-23T02:42:22.765Z,13.63
2018-09-23T02:44:50.870Z,13.62
2018-09-23T02:47:18.897Z,13.56
2018-09-23T02:49:47.011Z,13.51
2018-09-23T02:52:15.124Z,13.50
2018-09-23T02:54:43.243Z,13.49
2018-09-23T02:57:11.651Z,13.45
2018-09-23T02:59:39.766Z,13.59
2018-09-23T03:02:07.808Z,13.41
2018-09-23T03:04:35.971Z,13.32
2018-09-23T03:07:04.104Z,13.27
2018-09-23T03:09:32.230Z,13.26
2018-09-23T03:12:00.408Z,13.21
2018-09-23T03:14:28.541Z,13.25
2018-09-23T03:16:56.606Z,13.19
2018-09-23T03:19:25.203Z,13.18
2018-09-23T03:21:53.377Z,13.12
2018-09-23T03:24:21.476Z,13.12
2018-09-23T03:27:02.724Z,13.09
2018-09-23T03:29:31.541Z,13.08
2018-09-23T03:31:59.737Z,13.13
2018-09-23T03:34:28.216Z,13.13
2018-09-23T03:36:56.949Z,13.14
2018-09-23T03:39:24.950Z,13.13
2018-09-23T03:41:53.049Z,13.14
2018-09-23T03:44:21.579Z,13.11
2018-09-23T03:46:49.633Z,13.10
2018-09-23T03:49:17.763Z,13.07
2018-09-23T03:51:46.031Z,13.07
2018-09-23T03:54:14.295Z,13.05
2018-09-23T03:56:44.338Z,13.10
2018-09-23T03:59:13.009Z,13.06
2018-09-23T04:01:41.114Z,13.04
2018-09-23T04:04:09.801Z,13.05
2018-09-23T04:06:37.833Z,13.03
2018-09-23T05:03:09.948Z,13.74
2018-09-23T05:05:38.421Z,13.91
2018-09-23T05:08:06.853Z,14.39
2018-09-23T05:10:35.703Z,14.66
2018-09-23T05:13:04.305Z,15.01
2018-09-23T05:15:32.628Z,15.51
2018-09-23T05:18:02.066Z,15.51
2018-09-23T05:20:30.220Z,15.42
2018-09-23T05:22:58.521Z,15.94
2018-09-23T05:25:26.957Z,16.42
2018-09-23T05:27:55.195Z,16.48
2018-09-23T05:30:23.601Z,16.69
2018-09-23T05:32:52.983Z,16.94
2018-09-23T05:35:22.143Z,16.93
2018-09-23T05:37:50.779Z,16.69
2018-09-23T05:40:19.623Z,16.56
2018-09-23T05:42:47.886Z,16.43
2018-09-23T05:45:27.063Z,16.44
2018-09-23T05:47:56.357Z,16.26
2018-09-23T05:50:26.603Z,16.69
2018-09-23T05:52:56.389Z,16.85
2018-09-23T05:55:36.052Z,16.89
2018-09-23T05:58:05.857Z,16.81
2018-09-23T06:00:39.212Z,17.08
2018-09-23T06:03:08.829Z,17.37
2018-09-23T06:05:38.379Z,17.66
2018-09-23T06:08:07.957Z,18.05
2018-09-23T06:10:36.675Z,18.17
2018-09-23T06:13:06.941Z,18.24
2018-09-23T06:15:35.583Z,18.46
2018-09-23T06:18:06.269Z,18.72
2018-09-23T06:20:36.029Z,18.86
2018-09-23T06:23:07.034Z,19.04
2018-09-23T06:25:37.607Z,18.85
2018-09-23T06:28:06.182Z,19.09
2018-09-23T06:30:35.558Z,19.19
2018-09-23T06:33:08.602Z,19.29
2018-09-23T06:35:38.113Z,19.44
2018-09-23T06:38:06.788Z,19.73
2018-09-23T06:40:38.361Z,19.74
2018-09-23T06:43:11.138Z,19.93
2018-09-23T06:45:40.324Z,20.05
2018-09-23T06:48:09.616Z,19.99
2018-09-23T06:50:41.760Z,20.05
2018-09-23T06:53:10.591Z,20.13
2018-09-23T06:55:39.588Z,20.21
2018-09-23T06:58:10.347Z,20.11
2018-09-23T07:00:40.002Z,20.09
2018-09-23T07:03:10.307Z,20.05
2018-09-23T07:05:44.740Z,20.45
2018-09-23T07:08:15.414Z,20.56
2018-09-23T07:10:45.202Z,20.17
2018-09-23T07:13:14.123Z,19.99
2018-09-23T07:15:42.510Z,20.25
2018-09-23T07:18:11.139Z,20.42
2018-09-23T07:20:39.834Z,20.50
2018-09-23T07:23:09.216Z,20.85
2018-09-23T07:25:38.382Z,20.88
2018-09-23T07:28:07.275Z,21.00
2018-09-23T07:30:35.988Z,21.37
2018-09-23T07:33:05.544Z,21.70
2018-09-23T07:35:34.816Z,21.73
2018-09-23T07:38:03.809Z,21.18
2018-09-23T07:40:33.271Z,21.42
2018-09-23T07:43:11.221Z,21.48
2018-09-23T07:45:41.885Z,21.04
2018-09-23T07:48:13.510Z,21.16
2018-09-23T07:50:42.457Z,21.47
2018-09-23T07:53:18.439Z,21.73
2018-09-23T07:55:47.699Z,21.74
2018-09-23T07:58:20.088Z,22.09
2018-09-23T08:00:53.292Z,21.83
2018-09-23T08:03:25.302Z,21.91
2018-09-23T08:05:56.667Z,21.74
2018-09-23T08:08:25.705Z,21.93
2018-09-23T08:10:55.761Z,22.23
2018-09-23T08:13:25.136Z,22.37
2018-09-23T08:15:53.817Z,22.55
2018-09-23T08:18:23.235Z,22.89
2018-09-23T08:20:53.568Z,22.99
2018-09-23T08:23:22.498Z,23.13
2018-09-23T08:25:51.188Z,23.48
2018-09-23T08:28:20.663Z,23.74
2018-09-23T08:30:49.802Z,23.41
2018-09-23T08:33:18.513Z,23.62
2018-09-23T08:35:47.497Z,24.29
2018-09-23T08:38:16.143Z,24.99
2018-09-23T08:40:44.936Z,24.57
2018-09-23T08:43:14.401Z,24.15
2018-09-23T08:45:43.479Z,24.37
2018-09-23T08:48:14.383Z,24.27
2018-09-23T08:50:45.796Z,24.16
2018-09-23T08:53:15.260Z,23.92
2018-09-23T08:55:44.323Z,23.86
2018-09-23T08:58:14.213Z,24.36
2018-09-23T09:00:43.274Z,24.92
2018-09-23T09:03:11.827Z,24.71
2018-09-23T09:05:42.233Z,24.63
2018-09-23T09:08:14.399Z,25.31
2018-09-23T09:10:43.865Z,25.51
2018-09-23T09:13:12.826Z,25.29
2018-09-23T09:15:43.048Z,25.37
2018-09-23T09:18:13.246Z,25.38
2018-09-23T09:20:42.112Z,26.00
2018-09-23T09:23:11.081Z,25.75
2018-09-23T09:25:40.070Z,25.61
2018-09-23T09:28:08.800Z,25.62
2018-09-23T09:30:38.218Z,25.84
2018-09-23T09:33:07.067Z,25.67
2018-09-23T09:35:36.143Z,26.26
2018-09-23T09:38:05.988Z,26.44
2018-09-23T09:40:34.692Z,26.30
2018-09-23T09:43:03.577Z,26.18
2018-09-23T09:45:32.739Z,26.29
2018-09-23T09:48:06.143Z,26.70
2018-09-23T09:50:36.356Z,26.27
2018-09-23T09:53:05.676Z,26.85
2018-09-23T09:55:37.023Z,27.11
2018-09-23T09:58:14.437Z,27.29
2018-09-23T10:00:50.802Z,27.50
2018-09-23T10:03:22.557Z,27.36
2018-09-23T10:06:02.793Z,27.48
2018-09-23T10:08:43.571Z,27.92
2018-09-23T10:11:16.454Z,28.15
2018-09-23T10:13:45.814Z,28.05
2018-09-23T10:16:19.471Z,27.77
2018-09-23T10:18:48.455Z,27.79
2018-09-23T10:21:17.764Z,27.47
2018-09-23T10:23:47.861Z,27.76
2018-09-23T10:26:18.657Z,28.23
2018-09-23T10:28:47.821Z,28.20
2018-09-23T10:31:18.904Z,28.03
2018-09-23T10:33:48.087Z,28.13
2018-09-23T10:36:18.044Z,28.74
2018-09-23T10:38:46.901Z,28.56
2018-09-23T10:41:16.197Z,28.64
2018-09-23T10:43:45.881Z,28.13
2018-09-23T10:46:17.433Z,28.30
2018-09-23T10:48:47.822Z,28.34
2018-09-23T10:51:16.848Z,28.27
2018-09-23T10:53:46.714Z,28.71
2018-09-23T10:56:16.071Z,28.98
2018-09-23T10:58:45.034Z,28.31
2018-09-23T11:01:14.938Z,28.29
2018-09-23T11:04:02.173Z,28.49
2018-09-23T11:06:33.312Z,28.25
2018-09-23T11:09:01.878Z,27.92
2018-09-23T11:11:31.290Z,28.27
2018-09-23T11:14:02.011Z,28.52
2018-09-23T11:16:31.369Z,28.71
2018-09-23T11:19:03.643Z,29.07
2018-09-23T11:21:33.466Z,28.93
2018-09-23T11:24:04.030Z,28.48
2018-09-23T11:26:34.154Z,28.59
2018-09-23T11:29:03.441Z,28.75
2018-09-23T11:31:32.194Z,28.57
2018-09-23T11:34:01.212Z,28.44
2018-09-23T11:36:30.350Z,28.71
2018-09-23T11:38:59.439Z,28.67
2018-09-23T11:41:28.970Z,28.53
2018-09-23T11:43:58.286Z,28.43
2018-09-23T11:46:27.538Z,28.66
2018-09-23T11:48:58.392Z,28.72
2018-09-23T11:51:28.296Z,28.95
2018-09-23T11:53:59.134Z,28.94
2018-09-23T11:56:28.658Z,29.02
2018-09-23T11:58:58.059Z,28.75
2018-09-23T12:01:27.340Z,28.83
2018-09-23T12:03:55.900Z,28.66
2018-09-23T12:06:25.516Z,28.57
2018-09-23T12:08:57.355Z,28.65
2018-09-23T12:11:28.626Z,28.85
2018-09-23T12:13:57.502Z,29.03
2018-09-23T12:16:26.407Z,28.94
2018-09-23T12:18:56.009Z,28.72
2018-09-23T12:21:24.610Z,28.85
2018-09-23T12:23:55.912Z,29.07
2018-09-23T12:26:25.671Z,29.38
2018-09-23T12:28:59.540Z,29.45
2018-09-23T12:31:28.822Z,29.44
2018-09-23T12:34:00.636Z,29.42
2018-09-23T12:36:30.198Z,29.17
2018-09-23T12:38:59.902Z,29.12
2018-09-23T12:41:30.119Z,29.33
2018-09-23T12:44:05.084Z,29.48
2018-09-23T12:46:37.911Z,29.52
2018-09-23T12:49:14.864Z,29.46
2018-09-23T12:51:48.691Z,29.28
2018-09-23T12:54:18.320Z,29.34
2018-09-23T12:56:49.133Z,29.25
2018-09-23T12:59:19.761Z,29.27
2018-09-23T13:01:49.039Z,29.40
2018-09-23T13:04:19.060Z,29.34
2018-09-23T13:06:47.994Z,29.22
2018-09-23T13:09:18.051Z,29.19
2018-09-23T13:11:47.206Z,29.27
2018-09-23T13:14:16.198Z,29.15
2018-09-23T13:16:45.160Z,29.06
2018-09-23T13:19:14.147Z,29.16
2018-09-23T13:21:43.254Z,29.26
2018-09-23T13:24:12.124Z,29.29
2018-09-23T13:26:41.135Z,29.29
2018-09-23T13:29:10.047Z,29.04
2018-09-23T13:31:38.746Z,28.90
2018-09-23T13:34:07.578Z,28.86
2018-09-23T13:36:36.286Z,28.93
2018-09-23T13:39:05.703Z,28.77
2018-09-23T13:41:39.337Z,28.62
2018-09-23T13:44:13.428Z,28.61
2018-09-23T13:46:46.422Z,28.52
2018-09-23T13:49:16.896Z,28.76
2018-09-23T13:52:00.295Z,28.25
2018-09-23T13:54:30.409Z,28.10
2018-09-23T13:56:59.119Z,28.33
2018-09-23T13:59:27.917Z,28.41
2018-09-23T14:01:57.458Z,28.46
2018-09-23T14:04:27.097Z,28.40
2018-09-23T14:06:56.370Z,28.35
2018-09-23T14:09:25.576Z,28.36
2018-09-23T14:11:54.303Z,28.35
2018-09-23T14:14:24.825Z,28.28
2018-09-23T14:16:54.356Z,28.23
2018-09-23T14:19:26.871Z,28.20
2018-09-23T14:21:57.858Z,28.02
2018-09-23T14:24:27.255Z,28.08
2018-09-23T14:26:57.055Z,27.79
2018-09-23T14:29:27.012Z,27.70
2018-09-23T14:31:56.086Z,27.58
2018-09-23T14:34:25.266Z,27.58
2018-09-23T14:36:54.185Z,27.54
2018-09-23T14:39:22.923Z,27.76
2018-09-23T14:41:55.739Z,27.73
2018-09-23T14:44:24.792Z,27.49
2018-09-23T14:48:24.627Z,27.21
2018-09-23T14:50:53.846Z,26.98
2018-09-23T14:53:22.574Z,26.90
2018-09-23T14:55:53.366Z,26.78
2018-09-23T14:58:22.233Z,26.65
2018-09-23T15:00:51.093Z,26.56
2018-09-23T15:03:21.781Z,26.43
2018-09-23T15:05:55.514Z,26.41
2018-09-23T15:08:31.247Z,26.24
2018-09-23T15:11:02.719Z,26.06
2018-09-23T15:13:33.303Z,25.94
2018-09-23T15:16:02.682Z,25.81
2018-09-23T15:18:32.756Z,25.62
2018-09-23T15:21:01.366Z,25.51
2018-09-23T15:23:30.372Z,25.33
2018-09-23T15:26:01.392Z,25.19
2018-09-23T15:28:30.015Z,25.05
2018-09-23T15:30:59.136Z,24.83
2018-09-23T15:33:28.089Z,24.62
2018-09-23T15:35:59.964Z,24.45
2018-09-23T15:38:29.763Z,24.23
2018-09-23T15:40:58.770Z,24.11
2018-09-23T15:43:27.429Z,23.80
2018-09-23T15:45:56.598Z,23.69
2018-09-23T15:48:25.114Z,23.62
2018-09-23T15:50:53.535Z,23.57
2018-09-23T15:53:22.019Z,23.45
2018-09-23T15:55:50.567Z,23.33
2018-09-23T15:58:19.625Z,23.25
2018-09-23T16:00:47.996Z,23.08
2018-09-23T16:03:16.444Z,23.07
2018-09-23T16:05:44.978Z,22.90
2018-09-23T16:08:13.639Z,22.76
2018-09-23T16:10:42.092Z,22.74
2018-09-23T16:13:10.896Z,22.69
2018-09-23T16:15:39.361Z,22.54
2018-09-23T16:18:07.684Z,22.32
2018-09-23T16:20:36.205Z,22.28
2018-09-23T16:23:04.712Z,22.26
2018-09-23T16:25:33.367Z,22.41
2018-09-23T16:28:02.263Z,22.30
2018-09-23T16:30:30.730Z,22.17
2018-09-23T16:32:59.452Z,22.04
2018-09-23T16:35:27.918Z,21.99
2018-09-23T16:37:56.292Z,21.81
2018-09-23T16:40:24.639Z,21.91
2018-09-23T16:42:52.972Z,21.72
2018-09-23T16:45:21.271Z,21.61
2018-09-23T16:47:50.056Z,21.55
2018-09-23T16:50:18.314Z,21.51
2018-09-23T16:52:46.703Z,21.39
2018-09-23T16:55:14.927Z,21.25
2018-09-23T16:57:44.274Z,21.15
2018-09-23T17:00:12.924Z,21.13
2018-09-23T17:02:41.346Z,21.13
2018-09-23T17:05:09.630Z,21.05
2018-09-23T17:07:37.840Z,20.99
2018-09-23T17:10:06.515Z,20.89
2018-09-23T17:12:35.316Z,20.82
2018-09-23T17:15:03.631Z,20.75
2018-09-23T17:17:32.204Z,20.59
2018-09-23T17:20:01.413Z,20.59
2018-09-23T17:22:29.985Z,20.51
2018-09-23T17:24:58.554Z,20.41
2018-09-23T17:27:27.046Z,20.36
2018-09-23T17:29:55.847Z,20.25
2018-09-23T17:32:24.173Z,20.24
2018-09-23T17:34:52.546Z,20.21
2018-09-23T17:37:21.323Z,20.17
2018-09-23T17:39:50.400Z,20.12
2018-09-23T17:42:23.170Z,20.15
2018-09-23T17:44:51.891Z,20.01
2018-09-23T17:47:20.408Z,20.02
2018-09-23T17:49:49.106Z,19.95
2018-09-23T17:52:18.082Z,19.92
2018-09-23T17:54:46.533Z,19.82
2018-09-23T17:57:14.902Z,19.79
2018-09-23T17:59:43.352Z,19.77
2018-09-23T18:02:11.885Z,19.72
2018-09-23T18:04:40.687Z,19.64
2018-09-23T18:07:09.576Z,19.57
2018-09-23T18:09:39.535Z,19.54
2018-09-23T18:12:09.560Z,19.44
2018-09-23T18:14:38.604Z,19.38
2018-09-23T18:17:08.548Z,19.37
2018-09-23T18:19:40.098Z,19.30
2018-09-23T18:22:10.475Z,19.29
2018-09-23T18:24:39.772Z,19.22
2018-09-23T18:27:10.629Z,19.18
2018-09-23T18:29:39.628Z,19.06
2018-09-23T18:32:08.237Z,19.05
2018-09-23T18:34:36.811Z,18.91
2018-09-23T18:37:05.702Z,18.85
2018-09-23T18:39:35.046Z,18.75
2018-09-23T18:42:03.423Z,18.69
2018-09-23T18:44:31.703Z,18.60
2018-09-23T18:46:59.917Z,18.52
2018-09-23T18:49:28.179Z,18.42
2018-09-23T18:51:56.513Z,18.38
2018-09-23T18:54:30.284Z,18.30
2018-09-23T18:56:58.631Z,18.24
2018-09-23T18:59:26.937Z,18.22
2018-09-23T19:01:55.251Z,18.17
2018-09-23T19:04:24.901Z,18.15
2018-09-23T19:06:53.468Z,18.12
2018-09-23T19:09:22.009Z,18.06
2018-09-23T19:11:50.388Z,17.98
2018-09-23T19:14:18.804Z,17.94
2018-09-23T19:16:47.377Z,17.85
2018-09-23T19:19:15.941Z,17.79
2018-09-23T19:21:44.438Z,17.72
2018-09-23T19:24:13.396Z,17.72
2018-09-23T19:26:42.036Z,17.62
2018-09-23T19:29:10.487Z,17.60
2018-09-23T19:31:38.909Z,17.55
2018-09-23T19:34:07.872Z,17.62
2018-09-23T19:36:36.885Z,17.61
2018-09-23T19:39:07.505Z,17.59
2018-09-23T19:41:36.455Z,17.52
2018-09-23T19:44:05.127Z,17.50
2018-09-23T19:46:33.441Z,17.42
2018-09-23T19:49:01.629Z,17.41
2018-09-23T19:51:30.010Z,17.36
2018-09-23T19:53:58.115Z,17.33
2018-09-23T19:56:26.402Z,17.26
2018-09-23T19:58:54.616Z,17.19
2018-09-23T20:01:23.499Z,17.15
2018-09-23T20:03:52.190Z,17.15
2018-09-23T20:06:20.473Z,17.10
2018-09-23T20:08:48.729Z,17.08
2018-09-23T20:11:16.987Z,17.08
2018-09-23T20:13:45.712Z,17.06
2018-09-23T20:16:14.257Z,17.10
2018-09-23T20:18:42.526Z,17.03
2018-09-23T20:21:10.783Z,16.98
2018-09-23T20:23:39.075Z,16.93
2018-09-23T20:26:07.422Z,16.91
2018-09-23T20:28:35.882Z,16.84
2018-09-23T20:31:04.457Z,16.78
2018-09-23T20:33:33.226Z,16.79
2018-09-23T20:36:01.679Z,16.74
2018-09-23T20:38:29.861Z,16.73
2018-09-23T20:40:58.682Z,16.64
2018-09-23T20:43:26.925Z,16.65
2018-09-23T20:45:55.596Z,16.62
2018-09-23T20:48:24.568Z,16.53
2018-09-23T20:50:53.876Z,16.49
2018-09-23T20:53:22.102Z,16.48
2018-09-23T20:55:51.121Z,16.48
2018-09-23T20:58:19.333Z,16.69
2018-09-23T21:00:48.000Z,16.83
2018-09-23T21:03:16.213Z,16.62
2018-09-23T21:05:44.847Z,16.55
2018-09-23T21:08:13.420Z,16.42
2018-09-23T21:10:41.692Z,16.33
2018-09-23T21:13:09.935Z,16.30
2018-09-23T21:15:38.629Z,16.19
2018-09-23T21:18:07.643Z,16.16
2018-09-23T21:20:35.950Z,16.10
2018-09-23T21:23:04.184Z,16.13
2018-09-23T21:25:32.278Z,16.09
2018-09-23T21:28:00.534Z,16.06
2018-09-23T21:30:28.649Z,15.96
2018-09-23T21:32:56.928Z,15.94
2018-09-23T21:35:25.018Z,15.87
2018-09-23T21:37:53.440Z,15.88
2018-09-23T21:40:21.680Z,15.89
2018-09-23T21:42:49.910Z,15.87
2018-09-23T21:45:18.004Z,15.83
2018-09-23T21:47:46.148Z,15.81
2018-09-23T21:50:14.599Z,15.77
2018-09-23T21:52:43.132Z,15.75
2018-09-23T21:55:11.317Z,15.67
2018-09-23T21:57:39.408Z,15.58
2018-09-23T22:00:08.571Z,15.64
2018-09-23T22:02:36.699Z,15.58
2018-09-23T22:05:04.843Z,15.50
2018-09-23T22:07:33.001Z,15.46
2018-09-23T22:10:01.174Z,15.43
2018-09-23T22:12:29.255Z,15.42
2018-09-23T22:14:57.318Z,15.37
2018-09-23T22:17:25.482Z,15.26
2018-09-23T22:19:53.507Z,15.18
2018-09-23T22:22:21.648Z,15.18
2018-09-23T22:24:49.888Z,15.16
2018-09-23T22:27:18.096Z,15.11
2018-09-23T22:29:46.333Z,15.09
2018-09-23T22:32:14.556Z,15.05
2018-09-23T22:34:42.661Z,15.05
2018-09-23T22:37:10.698Z,15.02
2018-09-23T22:39:38.835Z,15.01
2018-09-23T22:42:07.344Z,14.95
2018-09-23T22:44:35.485Z,14.89
2018-09-23T22:47:03.668Z,14.98
2018-09-23T22:49:31.870Z,14.87
2018-09-23T22:52:00.057Z,14.79
2018-09-23T22:54:28.153Z,14.79
2018-09-23T22:56:56.222Z,14.86
2018-09-23T22:59:24.406Z,14.73
2018-09-23T23:01:52.511Z,14.66
2018-09-23T23:04:20.719Z,14.60
2018-09-23T23:06:48.865Z,14.49
2018-09-23T23:09:16.955Z,14.41
2018-09-23T23:11:45.103Z,14.41
2018-09-23T23:14:13.209Z,14.39
2018-09-23T23:16:41.326Z,14.35
2018-09-23T23:19:09.540Z,14.36
2018-09-23T23:21:37.899Z,14.33
2018-09-23T23:24:06.049Z,14.27
2018-09-23T23:26:34.170Z,14.21
2018-09-23T23:29:02.305Z,14.14
2018-09-23T23:31:30.343Z,14.15
2018-09-23T23:33:58.450Z,14.16
2018-09-23T23:36:26.820Z,14.13
2018-09-23T23:38:54.868Z,14.09
2018-09-23T23:41:22.874Z,14.02
2018-09-23T23:43:50.996Z,14.00
2018-09-23T23:46:19.177Z,14.06
2018-09-23T23:48:47.270Z,13.99
2018-09-23T23:51:15.385Z,13.98
2018-09-23T23:53:43.557Z,13.93
2018-09-23T23:56:11.828Z,13.90
2018-09-23T23:58:39.839Z,13.85
